createdAt,value
2018-06-19T00:00:23.136Z,0.00
2018-06-19T00:01:23.131Z,0.00
2018-06-19T00:02:23.140Z,0.00
2018-06-19T00:03:23.119Z,0.00
2018-06-19T00:04:23.123Z,0.00
2018-06-19T00:05:23.112Z,0.00
2018-06-19T00:06:23.105Z,0.00
2018-06-19T00:07:23.097Z,0.00
2018-06-19T00:08:23.092Z,0.00
2018-06-19T00:09:23.086Z,0.00
2018-06-19T00:10:23.086Z,0.00
2018-06-19T00:11:23.071Z,0.00
2018-06-19T00:12:23.068Z,0.00
2018-06-19T00:13:23.064Z,0.00
2018-06-19T00:14:23.055Z,0.00
2018-06-19T00:15:23.058Z,0.00
2018-06-19T00:16:23.046Z,0.00
2018-06-19T00:17:23.037Z,0.00
2018-06-19T00:18:23.033Z,0.00
2018-06-19T00:19:23.033Z,0.00
2018-06-19T00:20:23.018Z,0.00
2018-06-19T00:21:23.016Z,0.00
2018-06-19T00:22:23.011Z,0.00
2018-06-19T00:23:23.001Z,0.00
2018-06-19T00:24:22.997Z,0.00
2018-06-19T00:25:22.991Z,0.00
2018-06-19T00:26:22.981Z,0.00
2018-06-19T00:27:23.624Z,0.00
2018-06-19T00:28:22.975Z,0.00
2018-06-19T00:29:22.967Z,0.00
2018-06-19T00:30:22.964Z,0.00
2018-06-19T00:31:22.956Z,0.00
2018-06-19T00:32:22.946Z,0.00
2018-06-19T00:33:22.945Z,0.00
2018-06-19T00:34:22.940Z,0.00
2018-06-19T00:35:22.932Z,0.00
2018-06-19T00:36:22.924Z,0.00
2018-06-19T00:37:22.915Z,0.00
2018-06-19T00:38:22.924Z,0.00
2018-06-19T00:39:22.903Z,0.00
2018-06-19T00:40:22.900Z,0.00
2018-06-19T00:41:22.892Z,0.00
2018-06-19T00:42:22.889Z,0.00
2018-06-19T00:43:22.881Z,0.00
2018-06-19T00:44:22.915Z,0.00
2018-06-19T00:45:22.873Z,0.00
2018-06-19T00:46:22.867Z,0.00
2018-06-19T00:47:22.854Z,0.00
2018-06-19T00:48:22.852Z,0.00
2018-06-19T00:49:22.844Z,0.00
2018-06-19T00:50:22.842Z,0.00
2018-06-19T00:51:22.832Z,0.00
2018-06-19T00:52:22.828Z,0.00
2018-06-19T00:53:22.817Z,0.00
2018-06-19T00:54:22.811Z,0.00
2018-06-19T00:55:22.808Z,0.00
2018-06-19T00:56:22.798Z,0.00
2018-06-19T00:57:22.796Z,0.00
2018-06-19T00:58:22.788Z,0.00
2018-06-19T00:59:22.782Z,0.00
2018-06-19T01:00:22.777Z,0.00
2018-06-19T01:01:22.771Z,0.00
2018-06-19T01:02:22.762Z,0.00
2018-06-19T01:03:22.776Z,0.00
2018-06-19T01:04:22.751Z,0.00
2018-06-19T01:05:22.746Z,0.00
2018-06-19T01:06:22.740Z,0.00
2018-06-19T01:07:22.731Z,0.00
2018-06-19T01:08:22.728Z,0.00
2018-06-19T01:09:22.722Z,0.00
2018-06-19T01:10:22.712Z,0.00
2018-06-19T01:11:22.712Z,0.00
2018-06-19T01:12:22.702Z,0.00
2018-06-19T01:13:22.698Z,0.00
2018-06-19T01:14:22.690Z,0.00
2018-06-19T01:15:22.680Z,0.00
2018-06-19T01:16:22.681Z,0.00
2018-06-19T01:17:22.672Z,0.00
2018-06-19T01:18:22.665Z,0.00
2018-06-19T01:19:22.662Z,0.00
2018-06-19T01:20:22.655Z,0.00
2018-06-19T01:21:22.655Z,0.00
2018-06-19T01:22:22.646Z,0.00
2018-06-19T01:23:22.640Z,0.00
2018-06-19T01:24:22.627Z,0.00
2018-06-19T01:25:22.625Z,0.00
2018-06-19T01:26:22.622Z,0.00
2018-06-19T01:27:22.615Z,0.00
2018-06-19T01:28:22.608Z,0.00
2018-06-19T01:29:22.602Z,0.00
2018-06-19T01:30:22.595Z,0.00
2018-06-19T01:31:22.585Z,0.00
2018-06-19T01:32:22.585Z,0.00
2018-06-19T01:33:22.578Z,0.00
2018-06-19T01:34:22.573Z,0.00
2018-06-19T01:35:22.562Z,0.00
2018-06-19T01:36:22.566Z,0.00
2018-06-19T01:37:22.553Z,0.00
2018-06-19T01:38:22.548Z,0.00
2018-06-19T01:39:22.543Z,0.00
2018-06-19T01:40:22.531Z,0.00
2018-06-19T01:41:22.526Z,0.00
2018-06-19T01:42:22.524Z,0.00
2018-06-19T01:43:22.518Z,0.00
2018-06-19T01:44:22.512Z,0.00
2018-06-19T01:45:22.509Z,0.00
2018-06-19T01:46:22.502Z,0.00
2018-06-19T01:47:22.493Z,0.00
2018-06-19T01:48:22.484Z,0.00
2018-06-19T01:49:22.483Z,0.00
2018-06-19T01:50:22.478Z,0.00
2018-06-19T01:51:22.471Z,0.00
2018-06-19T01:52:22.464Z,0.00
2018-06-19T01:53:22.461Z,0.00
2018-06-19T01:54:22.448Z,0.00
2018-06-19T01:55:22.445Z,0.00
2018-06-19T01:56:22.439Z,0.00
2018-06-19T01:57:22.435Z,0.00
2018-06-19T01:58:22.428Z,0.00
2018-06-19T01:59:22.426Z,0.00
2018-06-19T02:00:22.418Z,0.00
2018-06-19T02:01:22.416Z,0.00
2018-06-19T02:02:22.408Z,0.00
2018-06-19T02:03:22.396Z,0.00
2018-06-19T02:04:22.389Z,0.00
2018-06-19T02:05:22.391Z,0.00
2018-06-19T02:06:22.380Z,0.00
2018-06-19T02:07:22.376Z,0.00
2018-06-19T02:08:22.367Z,0.00
2018-06-19T02:09:22.370Z,0.00
2018-06-19T02:10:22.358Z,0.00
2018-06-19T02:11:22.350Z,0.00
2018-06-19T02:12:22.345Z,0.00
2018-06-19T02:13:22.340Z,0.00
2018-06-19T02:14:22.334Z,0.00
2018-06-19T02:15:22.330Z,0.00
2018-06-19T02:16:22.325Z,0.00
2018-06-19T02:17:22.315Z,0.00
2018-06-19T02:18:22.305Z,0.00
2018-06-19T02:19:22.299Z,0.00
2018-06-19T02:20:22.300Z,0.00
2018-06-19T02:21:22.292Z,0.00
2018-06-19T02:22:22.285Z,0.00
2018-06-19T02:23:22.292Z,0.00
2018-06-19T02:24:22.273Z,0.00
2018-06-19T02:25:22.269Z,0.00
2018-06-19T02:26:22.264Z,0.00
2018-06-19T02:27:22.257Z,0.00
2018-06-19T02:28:22.247Z,0.00
2018-06-19T02:29:22.250Z,0.00
2018-06-19T02:30:22.241Z,4.00
2018-06-19T02:31:22.233Z,4.00
2018-06-19T02:32:22.253Z,4.00
2018-06-19T02:33:22.223Z,0.00
2018-06-19T02:34:22.217Z,0.00
2018-06-19T02:35:22.203Z,0.00
2018-06-19T02:36:22.223Z,4.00
2018-06-19T02:37:22.197Z,4.00
2018-06-19T02:38:22.213Z,4.00
2018-06-19T02:39:22.202Z,4.00
2018-06-19T02:40:22.179Z,4.00
2018-06-19T02:41:22.199Z,4.00
2018-06-19T02:42:22.167Z,4.00
2018-06-19T02:43:22.160Z,4.00
2018-06-19T02:44:22.153Z,4.00
2018-06-19T02:45:22.149Z,8.00
2018-06-19T02:46:22.146Z,8.00
2018-06-19T02:47:22.140Z,4.00
2018-06-19T02:48:22.131Z,8.00
2018-06-19T02:49:22.123Z,8.00
2018-06-19T02:50:22.116Z,12.00
2018-06-19T02:51:22.112Z,8.00
2018-06-19T02:52:22.108Z,12.00
2018-06-19T02:53:22.098Z,12.00
2018-06-19T02:54:22.095Z,12.00
2018-06-19T02:55:22.089Z,16.00
2018-06-19T02:56:22.083Z,16.00
2018-06-19T02:57:22.080Z,16.00
2018-06-19T02:58:22.066Z,16.00
2018-06-19T02:59:22.083Z,16.00
2018-06-19T03:00:22.168Z,20.00
2018-06-19T03:01:22.053Z,20.00
2018-06-19T03:02:22.044Z,20.00
2018-06-19T03:03:22.045Z,28.00
2018-06-19T03:04:22.035Z,28.00
2018-06-19T03:05:22.024Z,28.00
2018-06-19T03:06:36.733Z,32.00
2018-06-19T03:07:22.017Z,40.00
2018-06-19T03:08:22.014Z,44.00
2018-06-19T03:09:22.004Z,48.00
2018-06-19T03:10:22.001Z,52.00
2018-06-19T03:11:21.991Z,56.00
2018-06-19T03:12:21.985Z,60.00
2018-06-19T03:13:21.976Z,64.00
2018-06-19T03:14:21.973Z,68.00
2018-06-19T03:15:21.965Z,64.00
2018-06-19T03:16:21.961Z,68.00
2018-06-19T03:17:21.959Z,68.00
2018-06-19T03:18:21.950Z,76.00
2018-06-19T03:19:21.955Z,76.00
2018-06-19T03:20:21.936Z,76.00
2018-06-19T03:21:21.930Z,76.00
2018-06-19T03:22:21.926Z,80.00
2018-06-19T03:23:21.920Z,76.00
2018-06-19T03:24:21.916Z,76.00
2018-06-19T03:25:21.907Z,72.00
2018-06-19T03:26:21.899Z,72.00
2018-06-19T03:27:21.891Z,72.00
2018-06-19T03:28:21.889Z,72.00
2018-06-19T03:29:21.884Z,68.00
2018-06-19T03:30:21.935Z,76.00
2018-06-19T03:31:21.871Z,84.00
2018-06-19T03:32:21.865Z,100.00
2018-06-19T03:33:21.857Z,120.00
2018-06-19T03:34:21.852Z,136.00
2018-06-19T03:35:21.844Z,148.00
2018-06-19T03:36:21.851Z,160.00
2018-06-19T03:37:21.838Z,164.00
2018-06-19T03:38:21.829Z,184.00
2018-06-19T03:39:21.827Z,204.00
2018-06-19T03:40:21.812Z,216.00
2018-06-19T03:41:21.812Z,228.00
2018-06-19T03:42:21.803Z,252.00
2018-06-19T03:43:21.792Z,280.00
2018-06-19T03:44:21.788Z,288.00
2018-06-19T03:45:21.790Z,296.00
2018-06-19T03:46:21.784Z,316.00
2018-06-19T03:47:21.775Z,340.00
2018-06-19T03:48:21.765Z,372.00
2018-06-19T03:49:21.759Z,392.00
2018-06-19T03:50:21.754Z,400.00
2018-06-19T03:51:21.748Z,368.00
2018-06-19T03:52:21.744Z,340.00
2018-06-19T03:53:21.743Z,332.00
2018-06-19T03:54:21.729Z,328.00
2018-06-19T03:55:21.722Z,324.00
2018-06-19T03:56:21.718Z,344.00
2018-06-19T03:57:21.714Z,356.00
2018-06-19T03:58:21.712Z,336.00
2018-06-19T03:59:21.705Z,328.00
2018-06-19T04:00:21.697Z,328.00
2018-06-19T04:01:21.700Z,376.00
2018-06-19T04:02:21.685Z,440.00
2018-06-19T04:03:21.674Z,508.00
2018-06-19T04:04:21.674Z,564.00
2018-06-19T04:05:21.668Z,592.00
2018-06-19T04:06:21.662Z,656.00
2018-06-19T04:07:21.658Z,620.00
2018-06-19T04:08:21.662Z,564.00
2018-06-19T04:09:21.644Z,560.00
2018-06-19T04:10:21.662Z,596.00
2018-06-19T04:11:21.630Z,636.00
2018-06-19T04:12:21.624Z,680.00
2018-06-19T04:13:21.618Z,672.00
2018-06-19T04:14:21.625Z,652.00
2018-06-19T04:15:21.601Z,584.00
2018-06-19T04:16:21.601Z,564.00
2018-06-19T04:17:21.590Z,620.00
2018-06-19T04:18:21.587Z,740.00
2018-06-19T04:19:21.582Z,836.00
2018-06-19T04:20:21.574Z,808.00
2018-06-19T04:21:21.569Z,784.00
2018-06-19T04:22:21.563Z,808.00
2018-06-19T04:23:21.552Z,744.00
2018-06-19T04:24:21.553Z,676.00
2018-06-19T04:25:21.556Z,616.00
2018-06-19T04:26:21.541Z,612.00
2018-06-19T04:27:21.533Z,624.00
2018-06-19T04:28:21.527Z,728.00
2018-06-19T04:29:21.520Z,876.00
2018-06-19T04:30:21.513Z,1008.00
2018-06-19T04:31:21.511Z,1160.00
2018-06-19T04:32:21.505Z,1324.00
2018-06-19T04:33:21.552Z,1616.00
2018-06-19T04:34:21.494Z,1852.00
2018-06-19T04:35:21.485Z,1952.00
2018-06-19T04:36:21.478Z,1992.00
2018-06-19T04:37:21.471Z,2104.00
2018-06-19T04:38:21.475Z,2188.00
2018-06-19T04:39:21.465Z,2004.00
2018-06-19T04:40:21.462Z,1660.00
2018-06-19T04:41:21.452Z,1272.00
2018-06-19T04:42:21.445Z,1092.00
2018-06-19T04:43:21.435Z,1008.00
2018-06-19T04:44:21.429Z,968.00
2018-06-19T04:45:21.425Z,1016.00
2018-06-19T04:46:21.421Z,1132.00
2018-06-19T04:47:21.418Z,1364.00
2018-06-19T04:48:21.414Z,1680.00
2018-06-19T04:49:21.405Z,1892.00
2018-06-19T04:50:21.395Z,2080.00
2018-06-19T04:51:21.391Z,2284.00
2018-06-19T04:52:21.399Z,2528.00
2018-06-19T04:53:21.378Z,2664.00
2018-06-19T04:54:21.376Z,2556.00
2018-06-19T04:55:21.370Z,2524.00
2018-06-19T04:56:21.368Z,2712.00
2018-06-19T04:57:21.355Z,2756.00
2018-06-19T04:58:21.375Z,2612.00
2018-06-19T04:59:21.344Z,2452.00
2018-06-19T05:00:21.337Z,2388.00
2018-06-19T05:01:21.362Z,2356.00
2018-06-19T05:02:21.344Z,2296.00
2018-06-19T05:03:21.328Z,2408.00
2018-06-19T05:04:21.319Z,2504.00
2018-06-19T05:05:21.313Z,2544.00
2018-06-19T05:06:21.308Z,2600.00
2018-06-19T05:07:21.295Z,2732.00
2018-06-19T05:08:21.290Z,2800.00
2018-06-19T05:09:21.301Z,2884.00
2018-06-19T05:10:21.285Z,2944.00
2018-06-19T05:11:21.275Z,2684.00
2018-06-19T05:12:21.270Z,2192.00
2018-06-19T05:13:21.266Z,1848.00
2018-06-19T05:14:21.259Z,1928.00
2018-06-19T05:15:21.253Z,2212.00
2018-06-19T05:16:21.244Z,2392.00
2018-06-19T05:17:21.241Z,2396.00
2018-06-19T05:18:21.236Z,2556.00
2018-06-19T05:19:21.228Z,3028.00
2018-06-19T05:20:21.243Z,3424.00
2018-06-19T05:21:21.216Z,3344.00
2018-06-19T05:22:21.208Z,3328.00
2018-06-19T05:23:21.204Z,3224.00
2018-06-19T05:24:21.205Z,2884.00
2018-06-19T05:25:21.201Z,2764.00
2018-06-19T05:26:21.189Z,3176.00
2018-06-19T05:27:21.188Z,3420.00
2018-06-19T05:28:21.177Z,3468.00
2018-06-19T05:29:21.173Z,3556.00
2018-06-19T05:30:21.176Z,3636.00
2018-06-19T05:31:21.179Z,3592.00
2018-06-19T05:32:21.154Z,3416.00
2018-06-19T05:33:21.149Z,3392.00
2018-06-19T05:34:21.143Z,3516.00
2018-06-19T05:35:21.138Z,3820.00
2018-06-19T05:36:21.130Z,3988.00
2018-06-19T05:37:21.125Z,4052.00
2018-06-19T05:38:21.120Z,3996.00
2018-06-19T05:39:21.117Z,3920.00
2018-06-19T05:40:21.109Z,3988.00
2018-06-19T05:41:21.105Z,4100.00
2018-06-19T05:42:21.100Z,3944.00
2018-06-19T05:43:21.090Z,3912.00
2018-06-19T05:44:21.088Z,3968.00
2018-06-19T05:45:21.080Z,3944.00
2018-06-19T05:46:21.136Z,3720.00
2018-06-19T05:47:21.062Z,3932.00
2018-06-19T05:48:21.064Z,4084.00
2018-06-19T05:49:21.058Z,3848.00
2018-06-19T05:50:21.052Z,4396.00
2018-06-19T05:51:21.050Z,4680.00
2018-06-19T05:52:21.046Z,4536.00
2018-06-19T05:53:21.034Z,4532.00
2018-06-19T05:54:21.031Z,4188.00
2018-06-19T05:55:21.021Z,4368.00
2018-06-19T05:56:21.017Z,4412.00
2018-06-19T05:57:21.014Z,4160.00
2018-06-19T05:58:21.008Z,3904.00
2018-06-19T05:59:21.005Z,3640.00
2018-06-19T06:00:21.000Z,3724.00
2018-06-19T06:01:20.994Z,3860.00
2018-06-19T06:02:21.022Z,3756.00
2018-06-19T06:03:20.981Z,3852.00
2018-06-19T06:04:20.972Z,3580.00
2018-06-19T06:05:20.970Z,3196.00
2018-06-19T06:06:20.964Z,3600.00
2018-06-19T06:07:20.958Z,3400.00
2018-06-19T06:08:20.952Z,3656.00
2018-06-19T06:09:20.951Z,4504.00
2018-06-19T06:10:20.943Z,4664.00
2018-06-19T06:11:20.935Z,4268.00
2018-06-19T06:12:20.926Z,4620.00
2018-06-19T06:13:20.926Z,4660.00
2018-06-19T06:14:20.921Z,4000.00
2018-06-19T06:15:20.916Z,4344.00
2018-06-19T06:16:20.930Z,5204.00
2018-06-19T06:17:20.906Z,5704.00
2018-06-19T06:18:20.946Z,5428.00
2018-06-19T06:19:20.895Z,5668.00
2018-06-19T06:20:20.890Z,5312.00
2018-06-19T06:21:20.880Z,5240.00
2018-06-19T06:22:20.874Z,5020.00
2018-06-19T06:23:20.871Z,4664.00
2018-06-19T06:24:20.865Z,4564.00
2018-06-19T06:25:20.865Z,4288.00
2018-06-19T06:26:20.855Z,4608.00
2018-06-19T06:27:20.851Z,5528.00
2018-06-19T06:28:20.841Z,5524.00
2018-06-19T06:29:20.839Z,5316.00
2018-06-19T06:30:20.833Z,5828.00
2018-06-19T06:31:20.854Z,6220.00
2018-06-19T06:32:20.822Z,5916.00
2018-06-19T06:33:20.819Z,5516.00
2018-06-19T06:34:20.812Z,5100.00
2018-06-19T06:35:20.830Z,5152.00
2018-06-19T06:36:20.803Z,5304.00
2018-06-19T06:37:20.792Z,5228.00
2018-06-19T06:38:20.787Z,6136.00
2018-06-19T06:39:20.793Z,7640.00
2018-06-19T06:40:20.778Z,8384.00
2018-06-19T06:41:20.778Z,9432.00
2018-06-19T06:42:20.791Z,10716.00
2018-06-19T06:43:20.762Z,11332.00
2018-06-19T06:44:20.756Z,11652.00
2018-06-19T06:45:20.751Z,11732.00
2018-06-19T06:46:20.747Z,11468.00
2018-06-19T06:47:20.749Z,11728.00
2018-06-19T06:48:20.737Z,11544.00
2018-06-19T06:49:20.732Z,11632.00
2018-06-19T06:50:20.754Z,11556.00
2018-06-19T06:51:20.724Z,11928.00
2018-06-19T06:52:20.716Z,12456.00
2018-06-19T06:53:20.712Z,12852.00
2018-06-19T06:54:20.707Z,12636.00
2018-06-19T06:55:20.702Z,11908.00
2018-06-19T06:56:20.703Z,11524.00
2018-06-19T06:57:20.693Z,10352.00
2018-06-19T06:58:20.689Z,10264.00
2018-06-19T06:59:20.684Z,10272.00
2018-06-19T07:00:20.678Z,10136.00
2018-06-19T07:01:20.671Z,9724.00
2018-06-19T07:02:20.683Z,10812.00
2018-06-19T07:03:20.662Z,11896.00
2018-06-19T07:04:20.660Z,13224.00
2018-06-19T07:05:20.656Z,11764.00
2018-06-19T07:06:20.651Z,9600.00
2018-06-19T07:07:20.645Z,10052.00
2018-06-19T07:08:20.641Z,9832.00
2018-06-19T07:09:20.635Z,8156.00
2018-06-19T07:10:20.657Z,7300.00
2018-06-19T07:11:20.627Z,8332.00
2018-06-19T07:12:20.618Z,10288.00
2018-06-19T07:13:20.620Z,9916.00
2018-06-19T07:14:20.613Z,10656.00
2018-06-19T07:15:20.610Z,11052.00
2018-06-19T07:16:20.603Z,10688.00
2018-06-19T07:17:20.602Z,12036.00
2018-06-19T07:18:20.595Z,12036.00
2018-06-19T07:19:20.635Z,12600.00
2018-06-19T07:20:20.587Z,11908.00
2018-06-19T07:21:20.585Z,12384.00
2018-06-19T07:22:20.609Z,11568.00
2018-06-19T07:23:20.573Z,13652.00
2018-06-19T07:24:20.571Z,14852.00
2018-06-19T07:25:20.561Z,14616.00
2018-06-19T07:26:20.566Z,13844.00
2018-06-19T07:27:20.554Z,13016.00
2018-06-19T07:28:20.550Z,13340.00
2018-06-19T07:29:20.547Z,13168.00
2018-06-19T07:30:20.544Z,12104.00
2018-06-19T07:31:20.539Z,12484.00
2018-06-19T07:32:20.533Z,13264.00
2018-06-19T07:33:20.565Z,12952.00
2018-06-19T07:34:20.523Z,13160.00
2018-06-19T07:35:20.560Z,13120.00
2018-06-19T07:36:20.518Z,12112.00
2018-06-19T07:37:20.514Z,10832.00
2018-06-19T07:38:20.542Z,10884.00
2018-06-19T07:39:20.504Z,10252.00
2018-06-19T07:40:20.503Z,9560.00
2018-06-19T07:41:20.497Z,10056.00
2018-06-19T07:42:20.491Z,9236.00
2018-06-19T07:43:20.487Z,9744.00
2018-06-19T07:44:20.486Z,10056.00
2018-06-19T07:45:20.479Z,11228.00
2018-06-19T07:46:20.477Z,11728.00
2018-06-19T07:47:20.470Z,11336.00
2018-06-19T07:48:20.472Z,11460.00
2018-06-19T07:49:20.468Z,12444.00
2018-06-19T07:50:20.461Z,12840.00
2018-06-19T07:51:20.456Z,12296.00
2018-06-19T07:52:20.450Z,11516.00
2018-06-19T07:53:20.449Z,10852.00
2018-06-19T07:54:20.442Z,10956.00
2018-06-19T07:55:20.442Z,10848.00
2018-06-19T07:56:20.434Z,11932.00
2018-06-19T07:57:20.449Z,13060.00
2018-06-19T07:58:20.472Z,12052.00
2018-06-19T07:59:20.424Z,11492.00
2018-06-19T08:00:20.421Z,11284.00
2018-06-19T08:01:20.414Z,11416.00
2018-06-19T08:02:20.410Z,10840.00
2018-06-19T08:03:20.410Z,10248.00
2018-06-19T08:04:20.404Z,10788.00
2018-06-19T08:05:20.401Z,11900.00
2018-06-19T08:06:20.399Z,11184.00
2018-06-19T08:07:20.390Z,8436.00
2018-06-19T08:08:20.394Z,7652.00
2018-06-19T08:09:20.382Z,7856.00
2018-06-19T08:10:20.381Z,7052.00
2018-06-19T08:11:20.378Z,7704.00
2018-06-19T08:12:20.370Z,7884.00
2018-06-19T08:13:20.386Z,7784.00
2018-06-19T08:14:20.367Z,8148.00
2018-06-19T08:15:20.366Z,8648.00
2018-06-19T08:16:20.361Z,7712.00
2018-06-19T08:17:20.358Z,8428.00
2018-06-19T08:18:20.361Z,7996.00
2018-06-19T08:19:20.344Z,6564.00
2018-06-19T08:20:20.342Z,6844.00
2018-06-19T08:21:20.353Z,6816.00
2018-06-19T08:22:20.341Z,6256.00
2018-06-19T08:23:20.331Z,7020.00
2018-06-19T08:24:20.328Z,7080.00
2018-06-19T08:25:20.323Z,7876.00
2018-06-19T08:26:20.319Z,8660.00
2018-06-19T08:27:20.317Z,9812.00
2018-06-19T08:28:20.311Z,11268.00
2018-06-19T08:29:20.311Z,10716.00
2018-06-19T08:30:20.302Z,9988.00
2018-06-19T08:31:20.303Z,9896.00
2018-06-19T08:32:20.299Z,10844.00
2018-06-19T08:33:20.292Z,11160.00
2018-06-19T08:34:20.290Z,11176.00
2018-06-19T08:35:20.283Z,9396.00
2018-06-19T08:36:20.303Z,9468.00
2018-06-19T08:37:20.276Z,10288.00
2018-06-19T08:38:20.280Z,9816.00
2018-06-19T08:39:20.267Z,9884.00
2018-06-19T08:40:20.268Z,11264.00
2018-06-19T08:41:20.262Z,10648.00
2018-06-19T08:42:20.266Z,9724.00
2018-06-19T08:43:20.256Z,8036.00
2018-06-19T08:44:20.251Z,7368.00
2018-06-19T08:45:20.248Z,6900.00
2018-06-19T08:46:20.246Z,6856.00
2018-06-19T08:47:20.244Z,7600.00
2018-06-19T08:48:20.241Z,8996.00
2018-06-19T08:49:20.247Z,9436.00
2018-06-19T08:50:20.232Z,10084.00
2018-06-19T08:51:20.229Z,10704.00
2018-06-19T08:52:20.223Z,10636.00
2018-06-19T08:53:20.222Z,10344.00
2018-06-19T08:54:20.261Z,10388.00
2018-06-19T08:55:20.265Z,10576.00
2018-06-19T08:56:20.208Z,12668.00
2018-06-19T08:57:20.211Z,14356.00
2018-06-19T08:58:20.202Z,16036.00
2018-06-19T08:59:20.196Z,18624.00
2018-06-19T09:00:20.220Z,16660.00
2018-06-19T09:01:20.224Z,15784.00
2018-06-19T09:02:20.184Z,14376.00
2018-06-19T09:03:20.183Z,13192.00
2018-06-19T09:04:20.182Z,15716.00
2018-06-19T09:05:20.177Z,17060.00
2018-06-19T09:06:20.174Z,14816.00
2018-06-19T09:07:20.172Z,13548.00
2018-06-19T09:08:20.177Z,13412.00
2018-06-19T09:09:20.164Z,12580.00
2018-06-19T09:10:20.164Z,12012.00
2018-06-19T09:11:20.157Z,13132.00
2018-06-19T09:12:20.155Z,14128.00
2018-06-19T09:13:20.185Z,14276.00
2018-06-19T09:14:20.160Z,13532.00
2018-06-19T09:15:20.141Z,13024.00
2018-06-19T09:16:20.139Z,12924.00
2018-06-19T09:17:20.138Z,12808.00
2018-06-19T09:18:20.132Z,13236.00
2018-06-19T09:19:20.130Z,12208.00
2018-06-19T09:20:20.158Z,11156.00
2018-06-19T09:21:20.126Z,11668.00
2018-06-19T09:22:20.124Z,12304.00
2018-06-19T09:23:20.119Z,12436.00
2018-06-19T09:24:20.113Z,10912.00
2018-06-19T09:25:20.116Z,10120.00
2018-06-19T09:26:20.109Z,10924.00
2018-06-19T09:27:20.105Z,11668.00
2018-06-19T09:28:20.104Z,11288.00
2018-06-19T09:29:20.102Z,10588.00
2018-06-19T09:30:20.097Z,10656.00
2018-06-19T09:31:20.116Z,11528.00
2018-06-19T09:32:20.092Z,12348.00
2018-06-19T09:33:20.087Z,12096.00
2018-06-19T09:34:20.081Z,12032.00
2018-06-19T09:35:20.080Z,12584.00
2018-06-19T09:36:20.082Z,12428.00
2018-06-19T09:37:20.075Z,11864.00
2018-06-19T09:38:20.072Z,13432.00
2018-06-19T09:39:20.070Z,11552.00
2018-06-19T09:40:20.068Z,10016.00
2018-06-19T09:41:20.064Z,9520.00
2018-06-19T09:42:20.058Z,9272.00
2018-06-19T09:43:20.055Z,9436.00
2018-06-19T09:44:20.050Z,10552.00
2018-06-19T09:45:20.046Z,11516.00
2018-06-19T09:46:20.100Z,12068.00
2018-06-19T09:47:20.228Z,12280.00
2018-06-19T09:48:20.215Z,11680.00
2018-06-19T09:49:20.040Z,11356.00
2018-06-19T09:50:20.034Z,12556.00
2018-06-19T09:51:20.031Z,12204.00
2018-06-19T09:52:20.027Z,10844.00
2018-06-19T09:53:20.023Z,10160.00
2018-06-19T09:54:20.025Z,10268.00
2018-06-19T09:55:20.016Z,10752.00
2018-06-19T09:56:20.037Z,10796.00
2018-06-19T09:57:20.012Z,11124.00
2018-06-19T09:58:20.022Z,11356.00
2018-06-19T09:59:20.060Z,11036.00
2018-06-19T10:00:19.999Z,10432.00
2018-06-19T10:01:20.003Z,10168.00
2018-06-19T10:02:19.995Z,10436.00
2018-06-19T10:03:19.988Z,10240.00
2018-06-19T10:04:19.990Z,9540.00
2018-06-19T10:05:19.991Z,8052.00
2018-06-19T10:06:19.998Z,7280.00
2018-06-19T10:07:19.991Z,7256.00
2018-06-19T10:08:19.979Z,8032.00
2018-06-19T10:09:19.978Z,8136.00
2018-06-19T10:10:19.973Z,7744.00
2018-06-19T10:11:19.967Z,8032.00
2018-06-19T10:12:20.042Z,8808.00
2018-06-19T10:13:19.965Z,8772.00
2018-06-19T10:14:19.955Z,9204.00
2018-06-19T10:15:19.956Z,10276.00
2018-06-19T10:16:19.951Z,12124.00
2018-06-19T10:17:19.955Z,13512.00
2018-06-19T10:18:19.951Z,14120.00
2018-06-19T10:19:19.947Z,13920.00
2018-06-19T10:20:19.937Z,13036.00
2018-06-19T10:21:19.955Z,12504.00
2018-06-19T10:22:19.931Z,11516.00
2018-06-19T10:23:19.931Z,10496.00
2018-06-19T10:24:19.928Z,9876.00
2018-06-19T10:25:19.924Z,9992.00
2018-06-19T10:26:19.921Z,11672.00
2018-06-19T10:27:19.919Z,12980.00
2018-06-19T10:28:19.920Z,13452.00
2018-06-19T10:29:19.913Z,13816.00
2018-06-19T10:30:19.909Z,13180.00
2018-06-19T10:31:19.905Z,12732.00
2018-06-19T10:32:19.908Z,12748.00
2018-06-19T10:33:19.900Z,14120.00
2018-06-19T10:34:19.896Z,15072.00
2018-06-19T10:35:19.893Z,15516.00
2018-06-19T10:36:19.892Z,15324.00
2018-06-19T10:37:19.885Z,15672.00
2018-06-19T10:38:19.883Z,16076.00
2018-06-19T10:39:19.881Z,15668.00
2018-06-19T10:40:19.892Z,16140.00
2018-06-19T10:41:19.877Z,15416.00
2018-06-19T10:42:19.875Z,14612.00
2018-06-19T10:43:19.872Z,15400.00
2018-06-19T10:44:19.862Z,15584.00
2018-06-19T10:45:19.862Z,15524.00
2018-06-19T10:46:19.861Z,17408.00
2018-06-19T10:47:19.876Z,21440.00
2018-06-19T10:48:19.855Z,22016.00
2018-06-19T10:49:19.867Z,18112.00
2018-06-19T10:50:19.853Z,17408.00
2018-06-19T10:51:19.854Z,18240.00
2018-06-19T10:52:19.852Z,22976.00
2018-06-19T10:53:19.843Z,23712.00
2018-06-19T10:54:19.840Z,22400.00
2018-06-19T10:55:19.839Z,18912.00
2018-06-19T10:56:19.837Z,16228.00
2018-06-19T10:57:19.833Z,15636.00
2018-06-19T10:58:19.834Z,16976.00
2018-06-19T10:59:19.834Z,17952.00
2018-06-19T11:00:19.828Z,18912.00
2018-06-19T11:01:19.825Z,18336.00
2018-06-19T11:02:19.828Z,18048.00
2018-06-19T11:03:19.818Z,18656.00
2018-06-19T11:04:19.818Z,16916.00
2018-06-19T11:05:19.821Z,19840.00
2018-06-19T11:06:19.815Z,21888.00
2018-06-19T11:07:19.927Z,18336.00
2018-06-19T11:08:19.880Z,15208.00
2018-06-19T11:09:19.810Z,14616.00
2018-06-19T11:10:19.810Z,14948.00
2018-06-19T11:11:19.805Z,15628.00
2018-06-19T11:12:19.804Z,18016.00
2018-06-19T11:13:19.807Z,21216.00
2018-06-19T11:14:19.801Z,23264.00
2018-06-19T11:15:19.794Z,22176.00
2018-06-19T11:16:19.800Z,22720.00
2018-06-19T11:17:19.795Z,23616.00
2018-06-19T11:18:19.791Z,24928.00
2018-06-19T11:19:19.788Z,24096.00
2018-06-19T11:20:19.789Z,24352.00
2018-06-19T11:21:19.797Z,26464.00
2018-06-19T11:22:19.785Z,25408.00
2018-06-19T11:23:19.784Z,26048.00
2018-06-19T11:24:19.785Z,34464.00
2018-06-19T11:25:19.781Z,44192.00
2018-06-19T11:26:19.791Z,49920.00
2018-06-19T11:27:19.778Z,59104.00
2018-06-19T11:28:19.776Z,44224.00
2018-06-19T11:29:19.780Z,48896.00
2018-06-19T11:30:19.774Z,46880.00
2018-06-19T11:31:19.773Z,52448.00
2018-06-19T11:32:19.774Z,84640.00
2018-06-19T11:33:19.772Z,58816.00
2018-06-19T11:34:19.769Z,44128.00
2018-06-19T11:35:19.771Z,35104.00
2018-06-19T11:36:19.773Z,37120.00
2018-06-19T11:37:19.774Z,38272.00
2018-06-19T11:38:19.771Z,26240.00
2018-06-19T11:39:19.773Z,20960.00
2018-06-19T11:40:19.771Z,19712.00
2018-06-19T11:41:19.773Z,20064.00
2018-06-19T11:42:19.769Z,19008.00
2018-06-19T11:43:19.778Z,19648.00
2018-06-19T11:44:19.772Z,22464.00
2018-06-19T11:45:19.774Z,19808.00
2018-06-19T11:46:19.775Z,20480.00
2018-06-19T11:47:19.778Z,23712.00
2018-06-19T11:48:19.775Z,34848.00
2018-06-19T11:49:19.837Z,42048.00
2018-06-19T11:50:19.777Z,40672.00
2018-06-19T11:51:19.814Z,36512.00
2018-06-19T11:52:19.784Z,29344.00
2018-06-19T11:53:19.780Z,23712.00
2018-06-19T11:54:19.783Z,19232.00
2018-06-19T11:55:19.778Z,16084.00
2018-06-19T11:56:19.777Z,18336.00
2018-06-19T11:57:19.779Z,23808.00
2018-06-19T11:58:19.781Z,18496.00
2018-06-19T11:59:19.782Z,15408.00
2018-06-19T12:00:19.781Z,12572.00
2018-06-19T12:01:19.780Z,12684.00
2018-06-19T12:02:19.796Z,15452.00
2018-06-19T12:03:19.782Z,16912.00
2018-06-19T12:04:19.777Z,17040.00
2018-06-19T12:05:19.780Z,17408.00
2018-06-19T12:06:19.786Z,17408.00
2018-06-19T12:07:19.781Z,17108.00
2018-06-19T12:08:19.782Z,14132.00
2018-06-19T12:09:19.781Z,10876.00
2018-06-19T12:10:19.785Z,9536.00
2018-06-19T12:11:19.782Z,10880.00
2018-06-19T12:12:19.784Z,12920.00
2018-06-19T12:13:19.786Z,15208.00
2018-06-19T12:14:19.782Z,15240.00
2018-06-19T12:15:19.781Z,14780.00
2018-06-19T12:16:19.779Z,15000.00
2018-06-19T12:17:19.780Z,17664.00